Aviation Digital Data Service (ADDS)

Output produced by METARs form (1245 UTC 26 March 2019)
found at http://www.aviationweather.gov/metar/data/
 
Forecast for: VOMY (MYSORE , IN)
Text: TAF VOMY 260800Z 2609/2618 11010KT 8000 FEW015
Forecast period: 0900 to 1800 UTC 26 March 2019
Forecast type: FROM: standard forecast or significant change
Winds: from the ESE (110 degrees) at 12 MPH (10 knots; 5.1 m/s)
Visibility: 5 miles (8 km)
Ceiling: at least 12,000 feet AGL
Clouds: few clouds at 1500 feet AGL
Weather: no significant weather forecast for this period